Hlavní strana
METAR-TAF:

METAR-TAF

Letiště :

Mezinárodní letiště Ta-lien Čou-šuej-c’

Ta-lien, Čína

zeměpisná šířka: 38-54N, zeměpisná délka: 121-38E, výška: 97 m

Aktuální stav počasí

Zpráva byla vytvořena před 22 minutami, v 05:30 UTC
Jižní vítr 10 kt
Teplota 14°C
Vlhkost vzduchu 72%
Tlak 1022 hPa
Viditelnost 10 km a více
Polojasno ve výšce 1500 ft
Oblačno až skoro zataženo ve výšce 4000 ft

METAR: ZYTL 220530Z 17005MPS 9999 SCT015 BKN040 14/09 Q1022 NOSIG

Čas: 13:52 (05:52 UTC)

Předpověď počasí

Zpráva byla vytvořena před 2 hodinami a 40 minutami, v 03:12 UTC
Předpověď platná od 22 v 06 UTC do 23 v 06 UTC
Jihojihovýchodní vítr 8 kt
Viditelnost: 6000 m
Skoro jasno ve výšce 1500 ft
Oblačno až skoro zataženo ve výšce 3300 ft

TAF: ZYTL 220312Z 2206/2306 15004MPS 6000 FEW015 BKN033 TX15/2206Z TN10/2222Z

Stav a předpovědi počasí z více než 4 000 letišť (zprávy METAR a TAF).

Červené a žluté tečky na mapě představují dostupné meteorologické stanice.

Když kurzor umístíte na tečku, zobrazí se název stanice.

Pak kliknutím zobrazíte stav a předpověď počasí.

Chcete-li změnit mapu, kliknutím na zelené tlačítko se znaménkem +mapu přiblížíte, kliknutím na zelené tlačítko se znaménkem – mapu oddálíte a kliknutím na zelené šipky přejdete na sousední mapy.


METAR-TAF: